createdAt,value
2023-01-25T00:00:01.757Z,103821.44
2023-01-25T00:02:28.822Z,103814.13
2023-01-25T00:04:55.591Z,103809.06
2023-01-25T00:07:23.706Z,103797.22
2023-01-25T00:09:50.913Z,103784.78
2023-01-25T00:12:17.685Z,103779.38
2023-01-25T00:14:45.457Z,103780.28
2023-01-25T00:17:12.159Z,103774.84
2023-01-25T00:19:38.840Z,103770.53
2023-01-25T00:22:05.527Z,103776.81
2023-01-25T00:24:32.220Z,103773.25
2023-01-25T00:26:58.873Z,103772.25
2023-01-25T00:29:25.621Z,103759.75
2023-01-25T00:32:02.688Z,103763.47
2023-01-25T00:34:29.891Z,103764.31
2023-01-25T00:37:12.992Z,103769.69
2023-01-25T00:39:39.719Z,103756.28
2023-01-25T00:42:10.868Z,103748.19
2023-01-25T00:44:38.888Z,103750.91
2023-01-25T00:47:05.870Z,103742.78
2023-01-25T00:49:33.487Z,103750.75
2023-01-25T00:52:00.896Z,103745.53
2023-01-25T00:54:27.608Z,103747.22
2023-01-25T00:56:56.447Z,103746.38
2023-01-25T00:59:24.648Z,103748.88
2023-01-25T01:01:52.390Z,103739.13
2023-01-25T01:04:20.241Z,103739.16
2023-01-25T01:06:47.020Z,103736.44
2023-01-25T01:09:17.505Z,103732.00
2023-01-25T01:11:44.533Z,103735.59
2023-01-25T01:14:12.296Z,103732.78
2023-01-25T01:16:39.251Z,103736.56
2023-01-25T01:19:06.318Z,103723.97
2023-01-25T01:21:33.026Z,103715.00
2023-01-25T01:23:59.809Z,103711.25
2023-01-25T01:26:26.422Z,103697.09
2023-01-25T01:28:53.164Z,103706.75
2023-01-25T01:31:23.015Z,103702.34
2023-01-25T01:33:53.959Z,103687.28
2023-01-25T01:36:26.024Z,103683.00
2023-01-25T01:38:53.034Z,103679.19
2023-01-25T01:41:20.124Z,103687.22
2023-01-25T01:43:46.819Z,103680.97
2023-01-25T01:46:31.942Z,103667.53
2023-01-25T01:49:03.272Z,103663.22
2023-01-25T01:51:51.376Z,103662.25
2023-01-25T01:54:25.925Z,103657.72
2023-01-25T01:57:16.490Z,103653.25
2023-01-25T02:00:00.883Z,103653.22
2023-01-25T02:02:27.690Z,103656.78
2023-01-25T02:04:59.622Z,103657.72
2023-01-25T02:07:38.294Z,103650.75
2023-01-25T02:10:09.199Z,103651.53
2023-01-25T02:12:37.148Z,103651.44
2023-01-25T02:15:05.117Z,103640.78
2023-01-25T02:17:37.762Z,103638.22
2023-01-25T02:20:18.100Z,103639.13
2023-01-25T02:23:15.746Z,103648.00
2023-01-25T02:25:43.103Z,103635.63
2023-01-25T02:28:16.560Z,103634.66
2023-01-25T02:30:44.168Z,103636.34
2023-01-25T02:33:11.263Z,103636.22
2023-01-25T02:35:40.653Z,103631.66
2023-01-25T02:38:08.364Z,103636.22
2023-01-25T02:40:43.931Z,103632.50
2023-01-25T02:43:10.570Z,103619.13
2023-01-25T02:45:37.259Z,103613.81
2023-01-25T02:48:04.267Z,103604.88
2023-01-25T02:50:30.968Z,103595.06
2023-01-25T02:52:57.620Z,103592.50
2023-01-25T02:55:24.300Z,103585.25
2023-01-25T02:57:51.030Z,103587.13
2023-01-25T03:00:18.058Z,103579.09
2023-01-25T03:02:44.778Z,103581.84
2023-01-25T03:05:11.440Z,103578.19
2023-01-25T03:07:38.117Z,103571.88
2023-01-25T03:10:05.140Z,103579.09
2023-01-25T03:12:31.898Z,103571.00
2023-01-25T03:14:58.546Z,103567.38
2023-01-25T03:17:25.258Z,103558.50
2023-01-25T03:19:53.953Z,103555.84
2023-01-25T03:22:20.678Z,103549.59
2023-01-25T03:24:47.376Z,103546.09
2023-01-25T03:27:14.422Z,103540.75
2023-01-25T03:29:41.769Z,103541.78
2023-01-25T03:32:08.945Z,103543.41
2023-01-25T03:34:36.263Z,103547.00
2023-01-25T03:37:03.815Z,103538.00
2023-01-25T03:39:30.525Z,103521.13
2023-01-25T03:41:57.268Z,103518.47
2023-01-25T03:44:24.010Z,103514.94
2023-01-25T03:46:50.706Z,103521.13
2023-01-25T03:49:19.240Z,103514.09
2023-01-25T03:51:45.911Z,103508.00
2023-01-25T03:54:12.686Z,103500.69
2023-01-25T03:56:39.362Z,103496.13
2023-01-25T03:59:06.211Z,103490.63
2023-01-25T04:01:33.325Z,103493.47
2023-01-25T04:04:00.059Z,103487.16
2023-01-25T04:06:26.730Z,103479.09
2023-01-25T04:08:53.404Z,103463.16
2023-01-25T04:11:20.101Z,103463.94
2023-01-25T04:13:46.867Z,103453.19
2023-01-25T04:16:13.829Z,103445.19
2023-01-25T04:18:40.898Z,103441.69
2023-01-25T04:21:07.565Z,103437.16
2023-01-25T04:23:34.410Z,103437.16
2023-01-25T04:26:05.225Z,103429.06
2023-01-25T04:28:33.137Z,103416.59
2023-01-25T04:30:59.966Z,103414.84
2023-01-25T04:33:27.054Z,103413.06
2023-01-25T04:35:53.723Z,103398.81
2023-01-25T04:38:20.878Z,103403.22
2023-01-25T04:40:47.740Z,103399.63
2023-01-25T04:43:16.283Z,103404.22
2023-01-25T04:45:43.250Z,103390.88
2023-01-25T04:48:12.302Z,103396.97
2023-01-25T04:50:43.724Z,103389.78
2023-01-25T04:53:12.271Z,103375.81
2023-01-25T04:55:39.041Z,103367.66
2023-01-25T04:58:05.742Z,103369.47
2023-01-25T05:00:32.747Z,103370.19
2023-01-25T05:02:59.539Z,103376.47
2023-01-25T05:05:26.264Z,103378.28
2023-01-25T05:07:53.028Z,103372.81
2023-01-25T05:10:19.825Z,103379.00
2023-01-25T05:12:46.545Z,103369.31
2023-01-25T05:15:13.751Z,103366.66
2023-01-25T05:17:40.544Z,103369.28
2023-01-25T05:20:08.064Z,103357.72
2023-01-25T05:22:34.756Z,103347.91
2023-01-25T05:25:02.905Z,103346.16
2023-01-25T05:27:29.650Z,103339.91
2023-01-25T05:29:57.305Z,103345.25
2023-01-25T05:32:24.814Z,103339.00
2023-01-25T05:34:52.201Z,103336.31
2023-01-25T05:37:21.156Z,103330.13
2023-01-25T05:39:48.086Z,103327.47
2023-01-25T05:42:17.815Z,103321.22
2023-01-25T05:44:47.394Z,103310.53
2023-01-25T05:47:17.299Z,103306.97
2023-01-25T05:49:44.207Z,103302.59
2023-01-25T05:52:15.453Z,103299.84
2023-01-25T05:54:42.078Z,103302.50
2023-01-25T05:57:08.760Z,103294.41
2023-01-25T05:59:35.409Z,103291.78
2023-01-25T06:02:02.113Z,103286.41
2023-01-25T06:04:28.889Z,103292.63
2023-01-25T06:06:55.660Z,103282.78
2023-01-25T06:09:23.469Z,103281.91
2023-01-25T06:11:50.273Z,103269.44
2023-01-25T06:14:17.354Z,103268.44
2023-01-25T06:16:43.950Z,103256.88
2023-01-25T06:19:13.873Z,103257.75
2023-01-25T06:21:40.661Z,103250.72
2023-01-25T06:24:07.792Z,103248.88
2023-01-25T06:26:34.557Z,103239.09
2023-01-25T06:29:01.211Z,103237.28
2023-01-25T06:31:27.992Z,103231.94
2023-01-25T06:33:54.843Z,103226.66
2023-01-25T06:36:22.749Z,103223.09
2023-01-25T06:38:51.025Z,103211.56
2023-01-25T06:41:18.989Z,103209.72
2023-01-25T06:43:45.929Z,103194.63
2023-01-25T06:46:12.875Z,103191.91
2023-01-25T06:48:41.780Z,103194.56
2023-01-25T06:51:11.200Z,103188.28
2023-01-25T06:53:42.132Z,103181.16
2023-01-25T06:56:21.626Z,103178.47
2023-01-25T06:58:49.400Z,103175.81
2023-01-25T07:01:21.415Z,103176.66
2023-01-25T07:03:53.200Z,103170.44
2023-01-25T07:06:20.310Z,103157.09
2023-01-25T07:08:47.345Z,103154.34
2023-01-25T07:11:14.879Z,103149.00
2023-01-25T07:13:45.752Z,103144.56
2023-01-25T07:16:18.134Z,103140.97
2023-01-25T07:18:44.978Z,103132.94
2023-01-25T07:21:21.228Z,103119.66
2023-01-25T07:23:49.383Z,103112.50
2023-01-25T07:26:24.708Z,103116.06
2023-01-25T07:28:52.652Z,103108.91
2023-01-25T07:31:20.544Z,103104.44
2023-01-25T07:33:56.251Z,103093.75
2023-01-25T07:36:23.694Z,103092.88
2023-01-25T07:38:54.603Z,103091.09
2023-01-25T07:41:21.883Z,103086.69
2023-01-25T07:43:48.860Z,103067.97
2023-01-25T07:46:16.768Z,103076.84
2023-01-25T07:48:48.886Z,103071.44
2023-01-25T07:51:23.195Z,103070.63
2023-01-25T07:53:52.234Z,103078.56
2023-01-25T07:56:22.221Z,103071.47
2023-01-25T07:58:49.165Z,103063.47
2023-01-25T08:01:18.411Z,103052.81
2023-01-25T08:03:49.846Z,103044.78
2023-01-25T08:06:17.466Z,103043.84
2023-01-25T08:08:47.400Z,103041.19
2023-01-25T08:11:21.709Z,103034.94
2023-01-25T08:13:49.948Z,103034.06
2023-01-25T08:16:18.695Z,103025.19
2023-01-25T08:18:54.302Z,103018.91
2023-01-25T08:21:21.770Z,103024.09
2023-01-25T08:23:48.640Z,103018.88
2023-01-25T08:26:17.119Z,103018.03
2023-01-25T08:28:44.404Z,103017.13
2023-01-25T08:31:16.632Z,103002.91
2023-01-25T08:33:44.440Z,102996.66
2023-01-25T08:36:11.143Z,102993.16
2023-01-25T08:38:37.845Z,102986.00
2023-01-25T08:41:09.416Z,102985.97
2023-01-25T08:43:36.509Z,102979.66
2023-01-25T08:46:03.298Z,102980.59
2023-01-25T08:48:29.990Z,102969.84
2023-01-25T08:50:56.821Z,102965.44
2023-01-25T08:53:23.835Z,102956.63
2023-01-25T08:55:51.064Z,102955.63
2023-01-25T08:58:22.000Z,102944.13
2023-01-25T09:00:49.351Z,102933.47
2023-01-25T09:03:18.093Z,102929.94
2023-01-25T09:05:45.072Z,102926.38
2023-01-25T09:08:11.814Z,102914.84
2023-01-25T09:10:38.570Z,102906.78
2023-01-25T09:13:07.658Z,102905.03
2023-01-25T09:15:35.311Z,102895.22
2023-01-25T09:18:01.943Z,102889.88
2023-01-25T09:20:30.550Z,102890.78
2023-01-25T09:22:59.857Z,102879.19
2023-01-25T09:25:26.571Z,102880.09
2023-01-25T09:27:53.206Z,102865.84
2023-01-25T09:30:20.000Z,102856.06
2023-01-25T09:32:50.676Z,102830.28
2023-01-25T09:35:17.641Z,102826.69
2023-01-25T09:37:44.383Z,102832.03
2023-01-25T09:40:28.865Z,102827.59
2023-01-25T09:43:24.784Z,102824.94
2023-01-25T09:45:51.402Z,102820.47
2023-01-25T09:48:38.279Z,102806.22
2023-01-25T09:51:17.091Z,102808.00
2023-01-25T09:53:51.152Z,102798.22
2023-01-25T09:56:26.696Z,102797.31
2023-01-25T09:59:04.756Z,102794.66
2023-01-25T10:01:39.075Z,102781.25
2023-01-25T10:04:14.826Z,102766.16
2023-01-25T10:06:55.169Z,102764.38
2023-01-25T10:09:37.560Z,102759.94
2023-01-25T10:12:23.603Z,102759.94
2023-01-25T10:14:50.906Z,102753.69
2023-01-25T10:17:35.513Z,102747.44
2023-01-25T10:20:24.412Z,102741.22
2023-01-25T10:23:11.206Z,102734.09
2023-01-25T10:25:46.573Z,102730.53
2023-01-25T10:28:57.454Z,102715.41
2023-01-25T10:31:53.387Z,102718.09
2023-01-25T10:34:35.452Z,102718.94
2023-01-25T10:37:19.973Z,102711.84
2023-01-25T10:40:14.897Z,102702.94
2023-01-25T10:42:48.323Z,102701.16
2023-01-25T10:45:16.271Z,102690.50
2023-01-25T10:47:49.844Z,102686.94
2023-01-25T10:50:47.276Z,102695.84
2023-01-25T10:53:39.613Z,102682.47
2023-01-25T10:56:09.356Z,102671.84
2023-01-25T10:58:38.626Z,102674.50
2023-01-25T11:01:07.663Z,102667.38
2023-01-25T11:03:40.723Z,102664.69
2023-01-25T11:06:09.042Z,102661.13
2023-01-25T11:08:38.257Z,102666.44
2023-01-25T11:11:21.116Z,102656.66
2023-01-25T11:13:47.988Z,102642.44
2023-01-25T11:16:29.716Z,102632.66
2023-01-25T11:18:57.535Z,102630.00
2023-01-25T11:21:27.197Z,102636.22
2023-01-25T11:24:09.416Z,102630.00
2023-01-25T11:26:38.806Z,102619.31
2023-01-25T11:29:22.620Z,102621.09
2023-01-25T11:31:54.514Z,102606.00
2023-01-25T11:34:26.639Z,102598.84
2023-01-25T11:37:35.100Z,102595.28
2023-01-25T11:40:13.022Z,102588.19
2023-01-25T11:43:17.440Z,102586.44
2023-01-25T11:46:06.615Z,102583.75
2023-01-25T11:48:58.976Z,102560.63
2023-01-25T11:51:35.898Z,102550.81
2023-01-25T11:54:28.256Z,102544.56
2023-01-25T11:57:07.207Z,102548.16
2023-01-25T11:59:50.150Z,102541.03
2023-01-25T12:02:36.334Z,102538.34
2023-01-25T12:05:33.862Z,102535.69
2023-01-25T12:08:32.973Z,102529.47
2023-01-25T12:11:11.786Z,102527.69
2023-01-25T12:13:52.837Z,102517.91
2023-01-25T12:16:42.207Z,102519.69
2023-01-25T12:19:37.788Z,102507.22
2023-01-25T12:22:28.622Z,102491.22
2023-01-25T12:25:02.225Z,102488.53
2023-01-25T12:27:47.806Z,102487.66
2023-01-25T12:30:38.838Z,102473.41
2023-01-25T12:33:15.881Z,102476.97
2023-01-25T12:35:54.843Z,102482.31
2023-01-25T12:38:49.027Z,102464.50
2023-01-25T12:41:38.732Z,102458.28
2023-01-25T12:44:20.972Z,102443.16
2023-01-25T12:47:03.051Z,102437.81
2023-01-25T12:50:09.118Z,102430.69
2023-01-25T12:52:51.878Z,102428.00
2023-01-25T12:55:18.963Z,102424.44
2023-01-25T12:58:14.819Z,102425.31
2023-01-25T13:00:57.631Z,102414.59
2023-01-25T13:03:55.199Z,102412.88
2023-01-25T13:06:32.645Z,102412.88
2023-01-25T13:09:25.210Z,102404.84
2023-01-25T13:11:52.235Z,102396.84
2023-01-25T13:14:28.350Z,102397.75
2023-01-25T13:17:10.637Z,102381.72
2023-01-25T13:19:37.709Z,102390.66
2023-01-25T13:22:04.943Z,102385.31
2023-01-25T13:24:33.204Z,102387.09
2023-01-25T13:27:36.694Z,102380.84
2023-01-25T13:30:29.561Z,102382.66
2023-01-25T13:32:58.317Z,102382.66
2023-01-25T13:35:26.703Z,102385.31
2023-01-25T13:38:25.248Z,102386.19
2023-01-25T13:41:11.989Z,102389.78
2023-01-25T13:43:40.484Z,102380.91
2023-01-25T13:46:11.288Z,102382.66
2023-01-25T13:48:46.809Z,102378.22
2023-01-25T13:51:16.881Z,102367.59
2023-01-25T13:53:55.441Z,102382.66
2023-01-25T13:56:28.295Z,102380.03
2023-01-25T13:58:54.975Z,102375.56
2023-01-25T14:01:23.807Z,102377.34
2023-01-25T14:03:55.725Z,102368.47
2023-01-25T14:06:25.536Z,102365.78
2023-01-25T14:08:54.388Z,102362.22
2023-01-25T14:11:23.802Z,102373.75
2023-01-25T14:14:12.890Z,102363.94
2023-01-25T14:16:40.137Z,102357.72
2023-01-25T14:19:22.521Z,102355.03
2023-01-25T14:21:49.624Z,102348.81
2023-01-25T14:24:19.553Z,102356.84
2023-01-25T14:26:47.491Z,102354.19
2023-01-25T14:29:35.669Z,102352.41
2023-01-25T14:32:03.339Z,102363.97
2023-01-25T14:34:30.093Z,102377.34
2023-01-25T14:37:14.314Z,102377.38
2023-01-25T14:39:41.039Z,102364.03
2023-01-25T14:42:08.255Z,102360.47
2023-01-25T14:44:35.122Z,102355.16
2023-01-25T14:47:23.326Z,102353.38
2023-01-25T14:49:50.296Z,102349.81
2023-01-25T14:52:19.511Z,102350.66
2023-01-25T14:54:54.837Z,102356.03
2023-01-25T14:57:29.563Z,102350.66
2023-01-25T14:59:57.213Z,102352.47
2023-01-25T15:02:30.507Z,102344.47
2023-01-25T15:05:15.603Z,102336.47
2023-01-25T15:07:46.340Z,102327.56
2023-01-25T15:10:28.414Z,102324.00
2023-01-25T15:13:17.870Z,102329.38
2023-01-25T15:15:59.157Z,102323.16
2023-01-25T15:18:51.822Z,102327.56
2023-01-25T15:21:24.022Z,102324.88
2023-01-25T15:23:51.801Z,102307.09
2023-01-25T15:26:26.864Z,102310.66
2023-01-25T15:28:56.218Z,102301.78
2023-01-25T15:31:34.314Z,102304.44
2023-01-25T15:34:01.860Z,102305.31
2023-01-25T15:36:30.478Z,102304.44
2023-01-25T15:38:57.312Z,102305.38
2023-01-25T15:41:24.343Z,102308.91
2023-01-25T15:43:51.390Z,102297.34
2023-01-25T15:46:22.616Z,102297.31
2023-01-25T15:48:50.808Z,102295.56
2023-01-25T15:51:18.419Z,102301.78
2023-01-25T15:53:45.442Z,102299.97
2023-01-25T15:56:30.873Z,102301.75
2023-01-25T15:59:00.465Z,102291.94
2023-01-25T16:01:29.671Z,102298.19
2023-01-25T16:03:58.587Z,102303.50
2023-01-25T16:06:33.513Z,102305.31
2023-01-25T16:09:01.797Z,102303.47
2023-01-25T16:11:28.546Z,102305.28
2023-01-25T16:13:55.244Z,102298.22
2023-01-25T16:16:23.794Z,102295.53
2023-01-25T16:18:50.775Z,102290.22
2023-01-25T16:21:17.507Z,102298.19
2023-01-25T16:23:44.265Z,102297.31
2023-01-25T16:26:29.522Z,102294.63
2023-01-25T16:28:56.622Z,102305.34
2023-01-25T16:31:32.343Z,102293.78
2023-01-25T16:34:01.233Z,102299.09
2023-01-25T16:36:28.969Z,102291.97
2023-01-25T16:38:55.730Z,102284.00
2023-01-25T16:41:22.460Z,102280.47
2023-01-25T16:43:49.750Z,102284.91
2023-01-25T16:46:17.985Z,102283.16
2023-01-25T16:48:46.398Z,102286.66
2023-01-25T16:51:24.649Z,102272.41
2023-01-25T16:53:55.419Z,102260.84
2023-01-25T16:56:30.198Z,102253.72
2023-01-25T16:59:02.331Z,102256.41
2023-01-25T17:01:29.132Z,102259.13
2023-01-25T17:03:56.176Z,102258.31
2023-01-25T17:06:28.651Z,102260.94
2023-01-25T17:09:09.440Z,102252.03
2023-01-25T17:11:39.986Z,102245.81
2023-01-25T17:14:07.202Z,102237.81
2023-01-25T17:16:34.532Z,102232.47
2023-01-25T17:19:04.479Z,102231.56
2023-01-25T17:21:32.235Z,102233.41
2023-01-25T17:24:00.565Z,102234.25
2023-01-25T17:26:29.114Z,102223.56
2023-01-25T17:28:57.717Z,102219.09
2023-01-25T17:31:27.525Z,102211.09
2023-01-25T17:33:55.466Z,102212.00
2023-01-25T17:36:22.737Z,102208.47
2023-01-25T17:38:49.776Z,102212.88
2023-01-25T17:41:17.397Z,102211.13
2023-01-25T17:43:44.271Z,102203.06
2023-01-25T17:46:18.097Z,102197.78
2023-01-25T17:48:45.391Z,102195.09
2023-01-25T17:51:12.078Z,102188.84
2023-01-25T17:53:38.946Z,102184.50
2023-01-25T17:56:07.190Z,102187.16
2023-01-25T17:58:38.127Z,102196.00
2023-01-25T18:01:19.990Z,102190.66
2023-01-25T18:03:48.278Z,102190.59
2023-01-25T18:06:18.077Z,102186.16
2023-01-25T18:08:47.948Z,102180.94
2023-01-25T18:11:19.844Z,102186.25
2023-01-25T18:13:49.463Z,102173.75
2023-01-25T18:16:18.765Z,102179.16
2023-01-25T18:18:46.128Z,102179.16
2023-01-25T18:21:24.269Z,102188.06
2023-01-25T18:23:53.902Z,102173.84
2023-01-25T18:26:26.232Z,102161.34
2023-01-25T18:28:57.997Z,102138.06
2023-01-25T18:31:24.888Z,102132.81
2023-01-25T18:33:51.609Z,102134.56
2023-01-25T18:36:18.767Z,102125.69
2023-01-25T18:38:45.575Z,102114.06
2023-01-25T18:41:12.688Z,102109.66
2023-01-25T18:43:39.436Z,102095.41
2023-01-25T18:46:06.452Z,102083.84
2023-01-25T18:48:36.527Z,102091.88
2023-01-25T18:51:09.063Z,102082.09
2023-01-25T18:53:38.035Z,102079.38
2023-01-25T18:56:12.406Z,102087.53
2023-01-25T18:58:39.343Z,102070.72
2023-01-25T19:01:12.361Z,102078.63
2023-01-25T19:03:39.171Z,102068.88
2023-01-25T19:06:06.231Z,102060.81
2023-01-25T19:08:33.670Z,102052.81
2023-01-25T19:11:02.298Z,102053.72
2023-01-25T19:13:32.220Z,102050.16
2023-01-25T19:16:00.883Z,102040.41
2023-01-25T19:18:35.455Z,102032.47
2023-01-25T19:21:06.351Z,102042.16
2023-01-25T19:23:35.315Z,102031.56
2023-01-25T19:26:02.005Z,102015.47
2023-01-25T19:28:29.254Z,102012.00
2023-01-25T19:30:56.726Z,102008.41
2023-01-25T19:33:23.739Z,102005.88
2023-01-25T19:35:59.937Z,102009.25
2023-01-25T19:38:26.825Z,102013.75
2023-01-25T19:40:53.564Z,102009.38
2023-01-25T19:43:20.243Z,102003.16
2023-01-25T19:45:46.930Z,102001.38
2023-01-25T19:48:13.565Z,102005.91
2023-01-25T19:50:40.355Z,102001.38
2023-01-25T19:53:07.087Z,102002.22
2023-01-25T19:55:33.895Z,102006.69
2023-01-25T19:58:00.565Z,102005.78
2023-01-25T20:00:27.571Z,102008.47
2023-01-25T20:02:57.380Z,102003.09
2023-01-25T20:05:28.230Z,102004.91
2023-01-25T20:07:55.502Z,102000.44
2023-01-25T20:10:22.296Z,102001.38
2023-01-25T20:12:48.958Z,101992.34
2023-01-25T20:15:15.921Z,101978.19
2023-01-25T20:17:43.551Z,101995.13
2023-01-25T20:20:10.989Z,102001.41
2023-01-25T20:22:37.815Z,102004.06
2023-01-25T20:25:04.894Z,101994.22
2023-01-25T20:27:31.519Z,102001.31
2023-01-25T20:29:58.344Z,101992.47
2023-01-25T20:32:32.832Z,102001.38
2023-01-25T20:35:03.383Z,101991.59
2023-01-25T20:37:30.186Z,101988.88
2023-01-25T20:39:56.946Z,101978.28
2023-01-25T20:42:23.726Z,101957.75
2023-01-25T20:44:50.429Z,101952.44
2023-01-25T20:47:17.064Z,101955.16
2023-01-25T20:49:43.723Z,101959.59
2023-01-25T20:52:13.712Z,101966.69
2023-01-25T20:54:41.657Z,101954.13
2023-01-25T20:57:08.880Z,101966.75
2023-01-25T20:59:35.520Z,101959.50
2023-01-25T21:02:02.371Z,101960.44
2023-01-25T21:04:29.036Z,101961.38
2023-01-25T21:06:55.720Z,101960.44
2023-01-25T21:09:23.337Z,101954.22
2023-01-25T21:11:50.080Z,101943.47
2023-01-25T21:14:16.865Z,101948.03
2023-01-25T21:16:43.537Z,101939.00
2023-01-25T21:19:10.575Z,101928.25
2023-01-25T21:21:38.568Z,101914.94
2023-01-25T21:24:05.977Z,101905.25
2023-01-25T21:26:34.277Z,101908.69
2023-01-25T21:29:02.387Z,101907.88
2023-01-25T21:31:33.701Z,101909.53
2023-01-25T21:34:01.308Z,101912.38
2023-01-25T21:36:28.482Z,101909.66
2023-01-25T21:38:55.477Z,101902.53
2023-01-25T21:41:29.086Z,101894.47
2023-01-25T21:44:16.238Z,101895.38
2023-01-25T21:46:49.264Z,101889.19
2023-01-25T21:49:37.420Z,101884.53
2023-01-25T21:52:04.310Z,101886.44
2023-01-25T21:54:37.077Z,101887.34
2023-01-25T21:57:09.277Z,101883.72
2023-01-25T21:59:36.591Z,101887.31
2023-01-25T22:02:05.116Z,101885.34
2023-01-25T22:04:36.120Z,101881.94
2023-01-25T22:07:04.393Z,101880.97
2023-01-25T22:09:31.474Z,101873.78
2023-01-25T22:11:58.387Z,101875.75
2023-01-25T22:14:25.415Z,101868.59
2023-01-25T22:16:52.411Z,101872.22
2023-01-25T22:19:19.483Z,101867.59
2023-01-25T22:21:46.274Z,101871.22
2023-01-25T22:24:13.388Z,101867.66
2023-01-25T22:26:46.388Z,101849.69
2023-01-25T22:29:13.981Z,101840.78
2023-01-25T22:31:41.441Z,101837.38
2023-01-25T22:34:08.250Z,101837.47
2023-01-25T22:36:35.281Z,101832.94
2023-01-25T22:39:02.065Z,101827.63
2023-01-25T22:41:31.008Z,101823.25
2023-01-25T22:43:58.422Z,101820.38
2023-01-25T22:46:27.690Z,101812.41
2023-01-25T22:48:54.682Z,101818.66
2023-01-25T22:51:25.428Z,101804.19
2023-01-25T22:53:53.442Z,101800.78
2023-01-25T22:56:23.067Z,101799.09
2023-01-25T22:58:50.680Z,101792.78
2023-01-25T23:01:25.413Z,101796.47
2023-01-25T23:03:52.942Z,101794.75
2023-01-25T23:06:25.519Z,101790.06
2023-01-25T23:08:55.284Z,101782.16
2023-01-25T23:11:24.243Z,101776.97
2023-01-25T23:14:11.438Z,101781.28
2023-01-25T23:16:38.104Z,101769.63
2023-01-25T23:19:05.496Z,101768.69
2023-01-25T23:21:32.699Z,101755.38
2023-01-25T23:24:00.969Z,101759.91
2023-01-25T23:26:29.776Z,101757.28
2023-01-25T23:28:57.561Z,101745.38
2023-01-25T23:31:26.116Z,101753.78
2023-01-25T23:33:59.435Z,101748.22
2023-01-25T23:36:28.668Z,101751.13
2023-01-25T23:38:56.451Z,101743.88
2023-01-25T23:41:26.232Z,101731.22
2023-01-25T23:43:53.396Z,101719.88
2023-01-25T23:46:20.143Z,101729.53
2023-01-25T23:48:46.953Z,101724.22
2023-01-25T23:51:15.621Z,101709.91
2023-01-25T23:53:43.166Z,101715.25
2023-01-25T23:56:19.002Z,101709.06
2023-01-25T23:58:46.363Z,101710.84
